Time;durP1;ratioP1;P1;durP2;ratioP2;P2;SDS_P1;SDS_P2;PMS_P1;PMS_P2;Temp;Humidity;BMP_temperature;BMP_pressure;BME280_temperature;BME280_humidity;BME280_pressure;Samples;Min_cycle;Max_cycle;Signal;HPM_P1;HPM_P2
2023/07/07 00:01:38;;;;;;;;;;;20.70;99.90;;;;;;5063456;28;19912;-82
2023/07/07 00:04:04;;;;;;;;;;;20.30;99.90;;;;;;5063998;28;20031;-85
2023/07/07 00:06:29;;;;;;;;;;;19.30;99.90;;;;;;5074165;28;19916;-83
2023/07/07 00:08:55;;;;;;;;;;;19.00;99.90;;;;;;5063296;28;19949;-83
2023/07/07 00:11:21;;;;;;;;;;;18.90;99.90;;;;;;5064268;28;19920;-84
2023/07/07 00:13:47;;;;;;;;;;;18.90;99.90;;;;;;5061755;28;19917;-83
2023/07/07 00:16:13;;;;;;;;;;;18.80;99.90;;;;;;5063135;28;19917;-83
2023/07/07 00:18:39;;;;;;;;;;;18.80;99.90;;;;;;5062150;28;19920;-84
2023/07/07 00:21:05;;;;;;;;;;;18.70;99.90;;;;;;5058757;28;19973;-85
2023/07/07 00:23:32;;;;;;;;;;;18.70;99.90;;;;;;5063252;28;20461;-85
2023/07/07 00:26:02;;;;;;;;;;;18.70;99.90;;;;;;5063334;28;20583;-84
2023/07/07 00:28:29;;;;;;;;;;;18.80;99.90;;;;;;5063036;28;19962;-84
2023/07/07 00:30:55;;;;;;;;;;;18.80;99.90;;;;;;5064125;28;19928;-84
2023/07/07 00:33:20;;;;;;;;;;;18.70;99.90;;;;;;5063883;28;20543;-84
2023/07/07 00:35:46;;;;;;;;;;;18.80;99.90;;;;;;5063687;28;19935;-83
2023/07/07 00:38:12;;;;;;;;;;;18.90;99.90;;;;;;5077430;28;19949;-83
2023/07/07 00:40:38;;;;;;;;;;;19.00;99.90;;;;;;5044957;28;19916;-83
2023/07/07 00:43:13;;;;;;;;;;;18.70;99.90;;;;;;5062871;28;20551;-83
2023/07/07 00:45:39;;;;;;;;;;;18.80;99.90;;;;;;5062612;28;20223;-85
2023/07/07 00:48:06;;;;;;;;;;;18.90;99.90;;;;;;5045121;28;19956;-83
2023/07/07 00:50:37;;;;;;;;;;;19.00;99.90;;;;;;5058176;28;19956;-83
2023/07/07 00:53:02;;;;;;;;;;;18.80;99.90;;;;;;5045498;28;19917;-84
2023/07/07 00:55:30;;;;;;;;;;;18.80;99.90;;;;;;5048746;28;19963;-83
2023/07/07 00:58:00;;;;;;;;;;;18.70;99.90;;;;;;5052318;28;19920;-84
2023/07/07 01:00:25;;;;;;;;;;;18.70;99.90;;;;;;5049920;28;19995;-83
2023/07/07 01:02:55;;;;;;;;;;;18.80;99.90;;;;;;5053124;28;19916;-83
2023/07/07 01:05:23;;;;;;;;;;;18.90;99.90;;;;;;5044541;28;19998;-83
2023/07/07 01:07:51;;;;;;;;;;;19.00;99.90;;;;;;5055872;28;19920;-83
2023/07/07 01:10:18;;;;;;;;;;;19.10;99.90;;;;;;5060972;28;19908;-84
2023/07/07 01:12:43;;;;;;;;;;;19.10;99.90;;;;;;5047472;28;20507;-83
2023/07/07 01:15:09;;;;;;;;;;;19.20;99.90;;;;;;5053331;28;19912;-83
2023/07/07 01:17:35;;;;;;;;;;;19.10;99.90;;;;;;5038502;28;19958;-82
2023/07/07 01:20:00;;;;;;;;;;;19.10;99.90;;;;;;5062245;28;19916;-83
2023/07/07 01:22:32;;;;;;;;;;;19.20;99.90;;;;;;5055532;28;20438;-82
2023/07/07 01:25:03;;;;;;;;;;;19.30;99.90;;;;;;5055330;28;19912;-83
2023/07/07 01:27:42;;;;;;;;;;;19.40;99.90;;;;;;5056879;28;19913;-84
2023/07/07 01:30:29;;;;;;;;;;;19.40;99.90;;;;;;5056559;28;19978;-83
2023/07/07 01:32:54;;;;;;;;;;;19.40;99.90;;;;;;5061861;28;20462;-83
2023/07/07 01:35:21;;;;;;;;;;;19.40;99.90;;;;;;5061860;28;19913;-83
2023/07/07 01:37:54;;;;;;;;;;;19.30;99.90;;;;;;5063803;28;20550;-83
2023/07/07 01:40:21;;;;;;;;;;;19.20;99.90;;;;;;5061884;28;19912;-83
2023/07/07 01:42:49;;;;;;;;;;;19.10;99.90;;;;;;5044102;28;19955;-84
2023/07/07 01:45:19;;;;;;;;;;;18.90;99.90;;;;;;5061602;28;19912;-83
2023/07/07 01:47:51;;;;;;;;;;;18.80;99.90;;;;;;5060311;28;19921;-82
2023/07/07 01:50:24;;;;;;;;;;;18.80;99.90;;;;;;5057567;28;19917;-83
2023/07/07 01:52:52;;;;;;;;;;;18.80;99.90;;;;;;5066148;28;19919;-83
2023/07/07 01:55:21;;;;;;;;;;;18.80;99.90;;;;;;5047992;28;20714;-82
2023/07/07 01:57:49;;;;;;;;;;;19.00;99.90;;;;;;5062506;28;19921;-83
2023/07/07 02:00:16;;;;;;;;;;;19.00;99.90;;;;;;5065670;28;19912;-83
2023/07/07 02:02:41;;;;;;;;;;;18.90;99.90;;;;;;5074330;28;20795;-83
2023/07/07 02:05:08;;;;;;;;;;;18.90;99.90;;;;;;5047308;28;19919;-83
2023/07/07 02:07:33;;;;;;;;;;;18.90;99.90;;;;;;5066243;28;19912;-83
2023/07/07 02:09:59;;;;;;;;;;;18.70;99.90;;;;;;5065659;28;19912;-83
2023/07/07 02:12:24;;;;;;;;;;;18.70;99.90;;;;;;5048082;28;19967;-83
2023/07/07 02:14:50;;;;;;;;;;;18.70;99.90;;;;;;5065618;28;19947;-83
2023/07/07 02:17:16;;;;;;;;;;;18.60;99.90;;;;;;5046774;28;19931;-83
2023/07/07 02:19:42;;;;;;;;;;;18.50;99.90;;;;;;5065688;28;19916;-83
2023/07/07 02:22:08;;;;;;;;;;;18.40;99.90;;;;;;5066206;28;19924;-84
2023/07/07 02:24:33;;;;;;;;;;;18.40;99.90;;;;;;5061657;28;19920;-85
2023/07/07 02:26:59;;;;;;;;;;;18.40;99.90;;;;;;5065518;28;19912;-84
2023/07/07 02:29:25;;;;;;;;;;;18.50;99.90;;;;;;5072074;28;19913;-84
2023/07/07 02:31:50;;;;;;;;;;;18.50;99.90;;;;;;5065045;28;20206;-84
2023/07/07 02:34:16;;;;;;;;;;;18.50;99.90;;;;;;5072652;28;19915;-84
2023/07/07 02:36:41;;;;;;;;;;;18.50;99.90;;;;;;5064746;28;19912;-87
2023/07/07 02:39:07;;;;;;;;;;;18.50;99.90;;;;;;5064373;28;19920;-82
2023/07/07 02:41:32;;;;;;;;;;;18.30;99.90;;;;;;5064716;28;20452;-83
2023/07/07 02:43:58;;;;;;;;;;;18.10;99.90;;;;;;5064778;28;19913;-83
2023/07/07 02:46:24;;;;;;;;;;;18.20;99.90;;;;;;5035828;28;19980;-84
2023/07/07 02:48:49;;;;;;;;;;;18.20;99.90;;;;;;5056497;28;20416;-84
2023/07/07 02:51:15;;;;;;;;;;;18.10;99.90;;;;;;5064274;28;19948;-84
2023/07/07 02:53:41;;;;;;;;;;;18.10;99.90;;;;;;5065040;28;19912;-84
2023/07/07 02:56:06;;;;;;;;;;;18.20;99.90;;;;;;5064708;28;19986;-85
2023/07/07 02:58:32;;;;;;;;;;;18.20;99.90;;;;;;5062368;28;19921;-82
2023/07/07 03:01:09;;;;;;;;;;;18.20;99.90;;;;;;5059059;28;19919;-83
2023/07/07 03:03:39;;;;;;;;;;;18.10;99.90;;;;;;5054019;28;19966;-82
2023/07/07 03:06:06;;;;;;;;;;;18.00;99.90;;;;;;5058592;28;19912;-84
2023/07/07 03:08:32;;;;;;;;;;;18.10;99.90;;;;;;5062581;28;19916;-84
2023/07/07 03:10:57;;;;;;;;;;;18.00;99.90;;;;;;5063782;28;19913;-83
2023/07/07 03:13:23;;;;;;;;;;;17.90;99.90;;;;;;5064059;28;19948;-83
2023/07/07 03:15:48;;;;;;;;;;;17.90;99.90;;;;;;5059505;28;20439;-83
2023/07/07 03:18:14;;;;;;;;;;;17.80;99.90;;;;;;5044761;28;20627;-82
2023/07/07 03:20:45;;;;;;;;;;;17.70;99.90;;;;;;5063572;28;19968;-83
2023/07/07 03:23:10;;;;;;;;;;;17.70;99.90;;;;;;5046104;28;19954;-83
2023/07/07 03:25:36;;;;;;;;;;;17.80;99.90;;;;;;5058368;28;20547;-84
2023/07/07 03:28:02;;;;;;;;;;;17.80;99.90;;;;;;5071433;28;20598;-82
2023/07/07 03:30:27;;;;;;;;;;;17.70;99.90;;;;;;5063795;28;20363;-83
2023/07/07 03:32:53;;;;;;;;;;;17.70;99.90;;;;;;5063857;28;19919;-83
2023/07/07 03:35:19;;;;;;;;;;;17.70;99.90;;;;;;5064236;28;20002;-82
2023/07/07 03:37:44;;;;;;;;;;;17.70;99.90;;;;;;5063721;28;19931;-83
2023/07/07 03:40:10;;;;;;;;;;;17.60;99.90;;;;;;5063507;28;20645;-84
2023/07/07 03:42:36;;;;;;;;;;;17.60;99.90;;;;;;5063453;28;19947;-83
2023/07/07 03:45:02;;;;;;;;;;;17.50;99.90;;;;;;5077607;28;19923;-83
2023/07/07 03:47:27;;;;;;;;;;;17.50;99.90;;;;;;5063318;28;19920;-83
2023/07/07 03:49:53;;;;;;;;;;;17.60;99.90;;;;;;5047025;28;19917;-82
2023/07/07 03:52:18;;;;;;;;;;;17.60;99.90;;;;;;5061635;28;19924;-82
2023/07/07 03:54:44;;;;;;;;;;;17.70;99.90;;;;;;5063772;28;19985;-82
2023/07/07 03:57:13;;;;;;;;;;;17.90;99.90;;;;;;5064990;28;19912;-82
2023/07/07 03:59:39;;;;;;;;;;;17.90;99.90;;;;;;5062968;28;20045;-83
2023/07/07 04:02:05;;;;;;;;;;;18.00;99.90;;;;;;5063884;28;20524;-82
2023/07/07 04:04:31;;;;;;;;;;;17.90;99.90;;;;;;5063678;28;19920;-82
2023/07/07 04:06:57;;;;;;;;;;;17.90;99.90;;;;;;5063001;28;19935;-82
2023/07/07 04:09:23;;;;;;;;;;;17.80;99.90;;;;;;5045783;28;19954;-82
2023/07/07 04:11:49;;;;;;;;;;;17.80;99.90;;;;;;5062859;28;20007;-82
2023/07/07 04:14:14;;;;;;;;;;;17.80;99.90;;;;;;5062348;28;19912;-82
2023/07/07 04:16:40;;;;;;;;;;;17.70;99.90;;;;;;5068606;28;20716;-82
2023/07/07 04:19:06;;;;;;;;;;;17.60;99.90;;;;;;5063986;28;20592;-83
2023/07/07 04:21:32;;;;;;;;;;;17.50;99.90;;;;;;5062634;28;20450;-82
2023/07/07 04:23:59;;;;;;;;;;;17.40;99.90;;;;;;5063763;28;19913;-83
2023/07/07 04:26:25;;;;;;;;;;;17.40;99.90;;;;;;5044221;28;19913;-82
2023/07/07 04:28:51;;;;;;;;;;;17.40;99.90;;;;;;5062958;28;19991;-83
2023/07/07 04:31:17;;;;;;;;;;;17.50;99.90;;;;;;5062364;28;19935;-83
2023/07/07 04:33:43;;;;;;;;;;;17.50;99.90;;;;;;5063008;28;19920;-83
2023/07/07 04:36:10;;;;;;;;;;;17.50;99.90;;;;;;5044974;28;19919;-83
2023/07/07 04:38:35;;;;;;;;;;;17.60;99.90;;;;;;5062184;28;19924;-82
2023/07/07 04:41:09;;;;;;;;;;;18.00;99.90;;;;;;5062670;28;19963;-82
2023/07/07 04:43:35;;;;;;;;;;;18.30;99.90;;;;;;5062455;28;20032;-83
2023/07/07 04:46:01;;;;;;;;;;;18.70;99.90;;;;;;5059170;28;19920;-83
2023/07/07 04:48:27;;;;;;;;;;;18.60;99.90;;;;;;5047572;28;19917;-82
2023/07/07 04:50:57;;;;;;;;;;;18.90;99.90;;;;;;5061317;28;19931;-82
2023/07/07 04:53:22;;;;;;;;;;;19.00;99.90;;;;;;5044421;28;19916;-82
2023/07/07 04:55:48;;;;;;;;;;;19.40;99.90;;;;;;5063640;28;19965;-82
2023/07/07 04:58:13;;;;;;;;;;;20.10;99.90;;;;;;5060146;28;19920;-82
2023/07/07 05:00:39;;;;;;;;;;;20.30;99.90;;;;;;5053223;28;19912;-83
2023/07/07 05:03:04;;;;;;;;;;;20.50;99.90;;;;;;5062763;28;20326;-83
2023/07/07 05:05:30;;;;;;;;;;;20.90;97.90;;;;;;5062710;28;19919;-84
2023/07/07 05:07:55;;;;;;;;;;;21.20;97.10;;;;;;5044789;28;19920;-86
2023/07/07 05:10:21;;;;;;;;;;;21.70;95.30;;;;;;5069716;28;20620;-87
2023/07/07 05:12:46;;;;;;;;;;;22.10;94.40;;;;;;5062138;28;19924;-82
2023/07/07 05:15:12;;;;;;;;;;;22.10;93.60;;;;;;5061880;28;19962;-82
2023/07/07 05:17:38;;;;;;;;;;;21.00;96.10;;;;;;5069749;28;19917;-82
2023/07/07 05:20:03;;;;;;;;;;;21.10;96.50;;;;;;5068978;28;20634;-84
2023/07/07 05:22:29;;;;;;;;;;;21.90;94.60;;;;;;5069333;28;19944;-86
2023/07/07 05:24:54;;;;;;;;;;;22.30;93.20;;;;;;5062555;28;19912;-84
2023/07/07 05:27:20;;;;;;;;;;;21.30;95.10;;;;;;5066886;28;19913;-84
2023/07/07 05:29:45;;;;;;;;;;;21.90;94.10;;;;;;5062415;28;20380;-84
2023/07/07 05:32:11;;;;;;;;;;;22.80;92.10;;;;;;5062120;28;20011;-86
2023/07/07 05:34:37;;;;;;;;;;;23.90;90.00;;;;;;5080592;28;20682;-81
2023/07/07 05:37:02;;;;;;;;;;;23.90;87.80;;;;;;5062030;28;19912;-83
2023/07/07 05:39:28;;;;;;;;;;;24.50;85.10;;;;;;5060292;28;19970;-84
2023/07/07 05:41:53;;;;;;;;;;;24.20;85.70;;;;;;5062121;28;19912;-83
2023/07/07 05:44:19;;;;;;;;;;;24.40;83.20;;;;;;5061897;28;19913;-85
2023/07/07 05:46:44;;;;;;;;;;;25.00;83.70;;;;;;5061910;28;19924;-85
2023/07/07 05:49:10;;;;;;;;;;;25.80;80.40;;;;;;5073044;28;20276;-87
2023/07/07 05:51:36;;;;;;;;;;;25.40;81.40;;;;;;5067068;28;19966;-86
2023/07/07 05:54:01;;;;;;;;;;;25.60;79.30;;;;;;5075116;28;19920;-86
2023/07/07 05:56:27;;;;;;;;;;;25.70;79.10;;;;;;5061840;28;19938;-85
2023/07/07 05:58:54;;;;;;;;;;;26.30;76.00;;;;;;5058881;28;20434;-84
2023/07/07 06:01:19;;;;;;;;;;;26.80;74.70;;;;;;5062149;28;19989;-83
2023/07/07 06:03:45;;;;;;;;;;;27.20;74.20;;;;;;5061709;28;19913;-84
2023/07/07 06:06:11;;;;;;;;;;;27.30;72.00;;;;;;5061369;28;19992;-84
2023/07/07 06:08:37;;;;;;;;;;;27.40;71.90;;;;;;5061935;28;20337;-85
2023/07/07 06:11:03;;;;;;;;;;;27.70;71.00;;;;;;5053763;28;19924;-84
2023/07/07 06:13:28;;;;;;;;;;;28.30;67.80;;;;;;5061587;28;20061;-88
2023/07/07 06:15:54;;;;;;;;;;;28.20;68.50;;;;;;5061831;28;20384;-87
2023/07/07 06:18:20;;;;;;;;;;;27.30;70.10;;;;;;5066578;28;19994;-84
2023/07/07 06:20:50;;;;;;;;;;;27.80;68.50;;;;;;5061679;28;19958;-85
2023/07/07 06:23:16;;;;;;;;;;;27.80;69.60;;;;;;5059764;28;20429;-80
2023/07/07 06:25:41;;;;;;;;;;;28.70;67.00;;;;;;5060616;28;19912;-83
2023/07/07 06:28:07;;;;;;;;;;;29.10;65.30;;;;;;5061516;28;20003;-83
2023/07/07 06:30:33;;;;;;;;;;;29.00;65.70;;;;;;5061882;28;19924;-83
2023/07/07 06:32:58;;;;;;;;;;;29.70;64.60;;;;;;5069230;28;20284;-83
2023/07/07 06:35:25;;;;;;;;;;;29.50;63.80;;;;;;5062234;28;20669;-82
2023/07/07 06:37:50;;;;;;;;;;;29.40;63.20;;;;;;5070870;28;19926;-82
2023/07/07 06:40:16;;;;;;;;;;;29.40;61.90;;;;;;5065215;28;19913;-82
2023/07/07 06:42:41;;;;;;;;;;;29.20;62.30;;;;;;5047688;28;19916;-83
2023/07/07 06:45:07;;;;;;;;;;;29.50;62.60;;;;;;5065519;28;19912;-82
2023/07/07 06:47:33;;;;;;;;;;;29.60;62.00;;;;;;5065182;28;19916;-83
2023/07/07 06:49:58;;;;;;;;;;;30.40;61.30;;;;;;5057371;28;19969;-82
2023/07/07 06:52:24;;;;;;;;;;;30.50;60.40;;;;;;5065476;28;19917;-82
2023/07/07 06:54:49;;;;;;;;;;;31.10;58.30;;;;;;5065352;28;19980;-83
2023/07/07 06:57:15;;;;;;;;;;;31.90;59.60;;;;;;5064652;28;19913;-83
2023/07/07 06:59:41;;;;;;;;;;;32.70;56.80;;;;;;5064535;28;19923;-83
2023/07/07 07:02:10;;;;;;;;;;;32.90;57.00;;;;;;5065205;28;19919;-83
2023/07/07 07:07:02;;;;;;;;;;;32.40;56.20;;;;;;5090158;22;19966;-76
2023/07/07 07:09:27;;;;;;;;;;;32.60;56.10;;;;;;5075862;28;19916;-74
2023/07/07 07:11:53;;;;;;;;;;;33.30;55.50;;;;;;5080423;28;20044;-75
2023/07/07 07:14:19;;;;;;;;;;;33.70;53.60;;;;;;5080669;28;20310;-75
2023/07/07 07:16:45;;;;;;;;;;;34.00;53.30;;;;;;5081566;28;19916;-74
2023/07/07 07:19:10;;;;;;;;;;;34.30;53.30;;;;;;5078557;28;19924;-74
2023/07/07 07:21:36;;;;;;;;;;;34.50;53.10;;;;;;5075419;28;19916;-74
2023/07/07 07:24:01;;;;;;;;;;;34.90;51.60;;;;;;5082485;28;20280;-74
2023/07/07 07:26:27;;;;;;;;;;;34.60;53.00;;;;;;5083110;28;19912;-75
2023/07/07 07:28:53;;;;;;;;;;;34.40;50.50;;;;;;5081469;28;19960;-75
2023/07/07 07:31:18;;;;;;;;;;;34.70;51.30;;;;;;5076418;28;19993;-74
2023/07/07 07:33:49;;;;;;;;;;;35.10;49.90;;;;;;5070253;28;21999;-75
2023/07/07 07:36:15;;;;;;;;;;;35.00;48.60;;;;;;5083203;28;20021;-75
2023/07/07 07:38:40;;;;;;;;;;;34.80;50.70;;;;;;5069704;28;20039;-74
2023/07/07 07:41:06;;;;;;;;;;;35.40;48.80;;;;;;5073368;28;19919;-75
2023/07/07 07:43:31;;;;;;;;;;;35.50;49.70;;;;;;5079723;28;19912;-75
2023/07/07 07:45:57;;;;;;;;;;;36.10;49.20;;;;;;5082580;28;20030;-74
2023/07/07 07:48:23;;;;;;;;;;;36.50;48.80;;;;;;5082483;28;20010;-75
2023/07/07 07:50:49;;;;;;;;;;;36.30;48.20;;;;;;5083017;28;19912;-75
2023/07/07 07:53:14;;;;;;;;;;;37.20;47.60;;;;;;5078991;28;19916;-75
2023/07/07 07:55:40;;;;;;;;;;;37.20;46.60;;;;;;5079765;28;19916;-76
2023/07/07 07:58:05;;;;;;;;;;;37.90;47.10;;;;;;5079657;28;19969;-75
2023/07/07 08:00:31;;;;;;;;;;;37.30;45.60;;;;;;5082628;28;19931;-74
2023/07/07 08:02:56;;;;;;;;;;;37.00;44.30;;;;;;5082388;28;19912;-75
2023/07/07 08:05:22;;;;;;;;;;;36.40;45.80;;;;;;5082648;28;19927;-74
2023/07/07 08:07:47;;;;;;;;;;;36.50;44.90;;;;;;5064361;28;19938;-75
2023/07/07 08:10:13;;;;;;;;;;;35.80;44.50;;;;;;5082223;28;20023;-73
2023/07/07 08:12:38;;;;;;;;;;;34.80;46.90;;;;;;5076644;28;19920;-74
2023/07/07 08:15:04;;;;;;;;;;;35.60;45.10;;;;;;5080797;28;19912;-75
2023/07/07 08:17:30;;;;;;;;;;;36.10;44.70;;;;;;5077688;28;20141;-75
2023/07/07 08:19:56;;;;;;;;;;;37.00;43.80;;;;;;5074729;28;20026;-75
2023/07/07 08:22:23;;;;;;;;;;;35.70;44.00;;;;;;5077426;28;20023;-75
2023/07/07 08:24:56;;;;;;;;;;;35.60;45.60;;;;;;5076496;28;19923;-74
2023/07/07 08:27:22;;;;;;;;;;;38.50;41.70;;;;;;5078747;28;20404;-76
2023/07/07 08:29:48;;;;;;;;;;;37.80;41.80;;;;;;5078727;28;19912;-74
2023/07/07 08:32:17;;;;;;;;;;;37.40;44.10;;;;;;5077752;28;20044;-75
2023/07/07 08:34:43;;;;;;;;;;;38.50;43.10;;;;;;5079980;28;19937;-75
2023/07/07 08:37:10;;;;;;;;;;;38.10;42.70;;;;;;5076101;28;19951;-74
2023/07/07 08:39:36;;;;;;;;;;;38.10;42.40;;;;;;5079025;28;19916;-76
2023/07/07 08:42:06;;;;;;;;;;;37.30;43.50;;;;;;5076249;28;19912;-75
2023/07/07 08:44:33;;;;;;;;;;;37.40;43.20;;;;;;5070144;28;19912;-75
2023/07/07 08:47:17;;;;;;;;;;;38.50;40.80;;;;;;5074516;28;20057;-74
2023/07/07 08:49:45;;;;;;;;;;;39.30;39.90;;;;;;5068740;28;19960;-75
2023/07/07 08:52:23;;;;;;;;;;;37.70;41.60;;;;;;5074745;28;19961;-74
2023/07/07 08:54:49;;;;;;;;;;;38.50;41.30;;;;;;5071996;28;19923;-74
2023/07/07 08:57:15;;;;;;;;;;;37.40;41.70;;;;;;5080382;28;19916;-75
2023/07/07 08:59:56;;;;;;;;;;;36.80;42.90;;;;;;5077203;28;19916;-75
2023/07/07 09:02:21;;;;;;;;;;;37.30;43.90;;;;;;5074510;28;19916;-74
2023/07/07 09:05:02;;;;;;;;;;;37.90;41.10;;;;;;5081404;28;19919;-75
2023/07/07 09:07:46;;;;;;;;;;;37.80;41.10;;;;;;5074223;28;20489;-75
2023/07/07 09:10:11;;;;;;;;;;;37.80;42.00;;;;;;5080081;28;19919;-75
2023/07/07 09:12:42;;;;;;;;;;;36.50;44.50;;;;;;5076319;28;20447;-76
2023/07/07 09:15:22;;;;;;;;;;;37.70;42.70;;;;;;5077331;28;19912;-75
2023/07/07 09:17:50;;;;;;;;;;;38.30;41.30;;;;;;5079193;28;19924;-75
2023/07/07 09:20:17;;;;;;;;;;;38.80;41.00;;;;;;5078197;28;19923;-75
2023/07/07 09:22:45;;;;;;;;;;;37.40;42.40;;;;;;5077119;28;19939;-75
2023/07/07 09:25:14;;;;;;;;;;;38.00;40.90;;;;;;5073273;28;19919;-74
2023/07/07 09:27:41;;;;;;;;;;;37.20;42.20;;;;;;5072105;28;19917;-74
2023/07/07 09:30:18;;;;;;;;;;;39.20;39.70;;;;;;5060817;28;20493;-74
2023/07/07 09:32:44;;;;;;;;;;;39.00;40.50;;;;;;5072369;28;19916;-76
2023/07/07 09:35:11;;;;;;;;;;;38.20;42.20;;;;;;5071311;28;20260;-74
2023/07/07 09:37:41;;;;;;;;;;;39.40;40.20;;;;;;5078341;28;20073;-76
2023/07/07 09:40:09;;;;;;;;;;;39.30;40.60;;;;;;5077242;28;20006;-75
2023/07/07 09:42:54;;;;;;;;;;;38.40;40.10;;;;;;5080854;28;19912;-76
2023/07/07 09:45:25;;;;;;;;;;;39.10;42.40;;;;;;5078956;28;20370;-76
2023/07/07 09:48:01;;;;;;;;;;;39.00;40.60;;;;;;5073249;28;19916;-75
2023/07/07 09:50:29;;;;;;;;;;;38.40;42.00;;;;;;5076976;28;19917;-75
2023/07/07 09:53:15;;;;;;;;;;;38.50;40.80;;;;;;5074596;28;19920;-74
2023/07/07 09:55:41;;;;;;;;;;;37.90;41.00;;;;;;5079174;28;19923;-74
2023/07/07 09:58:19;;;;;;;;;;;38.20;40.50;;;;;;5080225;28;19922;-75
2023/07/07 10:00:46;;;;;;;;;;;38.70;41.30;;;;;;5078986;28;19912;-76
2023/07/07 10:03:30;;;;;;;;;;;37.50;41.40;;;;;;5080146;28;20354;-74
2023/07/07 10:05:57;;;;;;;;;;;39.20;40.30;;;;;;5076650;28;19912;-76
2023/07/07 10:08:23;;;;;;;;;;;37.30;43.90;;;;;;5079816;28;20026;-75
2023/07/07 10:11:04;;;;;;;;;;;38.40;41.00;;;;;;5076647;28;19999;-74
2023/07/07 10:13:30;;;;;;;;;;;38.60;40.70;;;;;;5081720;28;19912;-74
2023/07/07 10:16:02;;;;;;;;;;;39.40;39.80;;;;;;5082840;28;20925;-76
2023/07/07 10:18:29;;;;;;;;;;;39.00;41.50;;;;;;5081039;28;19969;-75
2023/07/07 10:21:01;;;;;;;;;;;40.70;39.20;;;;;;5082351;28;19919;-74
2023/07/07 10:23:28;;;;;;;;;;;41.20;39.70;;;;;;5079515;28;20340;-75
2023/07/07 10:25:54;;;;;;;;;;;39.10;40.90;;;;;;5077770;28;19919;-75
2023/07/07 10:28:20;;;;;;;;;;;38.50;41.30;;;;;;5070560;28;19912;-74
2023/07/07 10:30:46;;;;;;;;;;;39.30;41.00;;;;;;5073375;28;19916;-75
2023/07/07 10:33:13;;;;;;;;;;;37.90;41.30;;;;;;5072068;28;19916;-75
2023/07/07 10:35:39;;;;;;;;;;;39.90;39.50;;;;;;5073626;28;19938;-75
2023/07/07 10:38:05;;;;;;;;;;;37.90;42.50;;;;;;5077861;28;19920;-74
2023/07/07 10:40:31;;;;;;;;;;;38.80;41.70;;;;;;5078465;28;19916;-75
2023/07/07 10:42:57;;;;;;;;;;;39.20;41.00;;;;;;5081965;28;20021;-74
2023/07/07 10:45:23;;;;;;;;;;;37.90;41.70;;;;;;5077414;28;19918;-75
2023/07/07 10:47:49;;;;;;;;;;;38.60;39.40;;;;;;5078893;28;19912;-74
2023/07/07 10:50:15;;;;;;;;;;;36.10;42.60;;;;;;5079078;28;19912;-75
2023/07/07 10:52:41;;;;;;;;;;;35.90;42.90;;;;;;5079417;28;19927;-79
2023/07/07 10:55:21;;;;;;;;;;;34.00;46.00;;;;;;5081466;28;19924;-75
2023/07/07 10:57:47;;;;;;;;;;;32.70;49.60;;;;;;5080597;28;20010;-74
2023/07/07 11:00:33;;;;;;;;;;;32.70;48.50;;;;;;5065681;28;20003;-75
2023/07/07 11:03:04;;;;;;;;;;;32.20;50.90;;;;;;5066415;28;19916;-75
2023/07/07 11:05:30;;;;;;;;;;;32.70;50.70;;;;;;5085061;28;19918;-75
2023/07/07 11:07:58;;;;;;;;;;;31.90;51.40;;;;;;5085256;28;20701;-74
2023/07/07 11:10:46;;;;;;;;;;;32.00;51.20;;;;;;5063145;28;20291;-77
2023/07/07 11:13:18;;;;;;;;;;;31.90;52.00;;;;;;5084080;28;19999;-76
2023/07/07 11:15:46;;;;;;;;;;;32.30;53.80;;;;;;5083947;28;19912;-75
2023/07/07 11:18:11;;;;;;;;;;;32.20;50.50;;;;;;5082881;28;19924;-75
2023/07/07 11:20:46;;;;;;;;;;;32.00;51.80;;;;;;5085146;28;19922;-74
2023/07/07 11:23:17;;;;;;;;;;;32.00;52.60;;;;;;5085994;28;19991;-76
2023/07/07 11:26:17;;;;;;;;;;;31.70;51.50;;;;;;5077534;28;19912;-75
2023/07/07 11:29:01;;;;;;;;;;;31.30;53.60;;;;;;5023935;28;20016;-75
2023/07/07 11:31:27;;;;;;;;;;;31.20;53.50;;;;;;5082225;28;19919;-75
2023/07/07 11:34:09;;;;;;;;;;;30.80;55.20;;;;;;5060904;28;19912;-74
2023/07/07 11:36:43;;;;;;;;;;;30.50;54.30;;;;;;5081095;28;19919;-74
2023/07/07 11:39:28;;;;;;;;;;;30.40;54.20;;;;;;5083867;28;19927;-74
2023/07/07 11:42:12;;;;;;;;;;;30.00;55.00;;;;;;5073945;28;20260;-74
2023/07/07 11:44:38;;;;;;;;;;;30.70;55.60;;;;;;5081719;28;20386;-75
2023/07/07 11:47:06;;;;;;;;;;;30.80;55.70;;;;;;5083546;28;19966;-75
2023/07/07 11:49:47;;;;;;;;;;;30.60;56.90;;;;;;5083460;28;19912;-75
2023/07/07 11:52:44;;;;;;;;;;;30.60;54.80;;;;;;5078242;28;19974;-75
2023/07/07 11:55:22;;;;;;;;;;;30.60;58.30;;;;;;5083952;28;19936;-75
2023/07/07 11:57:52;;;;;;;;;;;30.40;55.90;;;;;;5075128;28;19931;-77
2023/07/07 12:00:41;;;;;;;;;;;30.20;54.40;;;;;;5083018;28;20006;-74
2023/07/07 12:03:22;;;;;;;;;;;30.30;55.10;;;;;;5072169;28;19918;-74
2023/07/07 12:05:49;;;;;;;;;;;30.00;58.40;;;;;;5082179;28;19958;-76
2023/07/07 12:08:16;;;;;;;;;;;30.10;56.80;;;;;;5086214;28;19924;-75
2023/07/07 12:10:51;;;;;;;;;;;29.70;54.30;;;;;;5075545;28;19917;-74
2023/07/07 12:13:26;;;;;;;;;;;29.70;54.30;;;;;;5082415;28;20025;-74
2023/07/07 12:15:57;;;;;;;;;;;29.80;56.80;;;;;;5081876;28;19959;-73
2023/07/07 12:18:22;;;;;;;;;;;29.70;53.50;;;;;;5081895;28;19986;-75
2023/07/07 12:20:50;;;;;;;;;;;29.90;53.40;;;;;;5075095;28;19920;-74
2023/07/07 12:23:21;;;;;;;;;;;29.70;55.00;;;;;;5078374;28;19912;-74
2023/07/07 12:25:46;;;;;;;;;;;29.90;55.90;;;;;;5064970;28;20404;-73
2023/07/07 12:28:13;;;;;;;;;;;30.00;55.30;;;;;;5055859;28;19920;-72
2023/07/07 12:30:48;;;;;;;;;;;30.00;55.60;;;;;;5074305;28;20435;-72
2023/07/07 12:33:14;;;;;;;;;;;29.80;55.00;;;;;;5079107;28;19923;-71
2023/07/07 12:35:40;;;;;;;;;;;29.40;57.30;;;;;;5081544;28;20315;-73
2023/07/07 12:38:26;;;;;;;;;;;29.70;58.40;;;;;;5075247;28;20655;-73
2023/07/07 12:40:56;;;;;;;;;;;29.90;56.80;;;;;;5074982;28;19924;-74
2023/07/07 12:43:25;;;;;;;;;;;30.00;58.10;;;;;;5070879;28;19924;-73
2023/07/07 12:45:52;;;;;;;;;;;29.90;56.40;;;;;;5073388;28;20547;-73
2023/07/07 12:48:19;;;;;;;;;;;29.60;54.90;;;;;;5057085;28;19916;-73
2023/07/07 12:50:45;;;;;;;;;;;29.70;54.90;;;;;;5079909;28;20830;-73
2023/07/07 12:53:12;;;;;;;;;;;29.60;56.50;;;;;;5080372;28;20028;-73
2023/07/07 12:55:39;;;;;;;;;;;29.50;58.20;;;;;;5079779;28;19917;-73
2023/07/07 12:58:04;;;;;;;;;;;29.40;54.30;;;;;;5081423;28;19959;-72
2023/07/07 13:00:34;;;;;;;;;;;29.60;54.90;;;;;;5081933;28;20413;-73
2023/07/07 13:03:20;;;;;;;;;;;29.40;55.40;;;;;;5075842;28;19951;-73
2023/07/07 13:05:47;;;;;;;;;;;29.30;55.60;;;;;;5082525;28;20377;-72
2023/07/07 13:08:31;;;;;;;;;;;29.30;54.90;;;;;;5086345;28;19927;-73
2023/07/07 13:11:20;;;;;;;;;;;29.40;54.70;;;;;;5078333;28;20418;-73
2023/07/07 13:13:45;;;;;;;;;;;29.30;55.00;;;;;;5079671;28;19923;-72
2023/07/07 13:16:12;;;;;;;;;;;29.40;57.30;;;;;;5078493;28;19920;-73
2023/07/07 13:18:38;;;;;;;;;;;29.40;54.90;;;;;;5074267;28;19920;-73
2023/07/07 13:21:04;;;;;;;;;;;29.30;54.50;;;;;;5081520;28;19934;-73
2023/07/07 13:23:34;;;;;;;;;;;29.30;56.50;;;;;;5075997;28;19919;-73
2023/07/07 13:26:00;;;;;;;;;;;29.30;55.30;;;;;;5081516;28;20043;-73
2023/07/07 13:28:26;;;;;;;;;;;29.40;56.30;;;;;;5081791;28;19999;-73
2023/07/07 13:30:53;;;;;;;;;;;29.30;56.30;;;;;;5077869;28;20049;-73
2023/07/07 13:33:19;;;;;;;;;;;29.40;55.00;;;;;;5081843;28;20434;-73
2023/07/07 13:35:47;;;;;;;;;;;29.40;57.20;;;;;;5080994;28;20550;-72
2023/07/07 13:38:14;;;;;;;;;;;29.30;54.60;;;;;;5072228;28;20605;-73
2023/07/07 13:40:40;;;;;;;;;;;29.30;55.00;;;;;;5077720;28;19919;-72
2023/07/07 13:43:11;;;;;;;;;;;29.30;55.60;;;;;;5078445;28;19912;-73
2023/07/07 13:45:37;;;;;;;;;;;29.30;57.50;;;;;;5076799;28;19991;-73
2023/07/07 13:48:08;;;;;;;;;;;29.20;52.70;;;;;;5086242;28;20495;-73
2023/07/07 13:50:34;;;;;;;;;;;29.10;53.70;;;;;;5080181;28;19913;-72
2023/07/07 13:53:03;;;;;;;;;;;29.10;53.20;;;;;;5084483;28;19916;-73
2023/07/07 13:55:30;;;;;;;;;;;29.20;55.00;;;;;;5083862;28;19935;-72
2023/07/07 13:57:56;;;;;;;;;;;29.20;54.70;;;;;;5085220;28;19921;-73
2023/07/07 14:00:28;;;;;;;;;;;29.20;54.10;;;;;;5080990;28;19927;-73
2023/07/07 14:02:54;;;;;;;;;;;29.20;54.50;;;;;;5084122;28;19916;-73
2023/07/07 14:05:21;;;;;;;;;;;29.10;53.30;;;;;;5083248;28;19916;-73
2023/07/07 14:07:48;;;;;;;;;;;29.10;53.60;;;;;;5065322;28;19924;-72
2023/07/07 14:10:21;;;;;;;;;;;29.10;55.40;;;;;;5082997;28;19962;-74
2023/07/07 14:12:49;;;;;;;;;;;29.20;57.50;;;;;;5073914;28;19931;-73
2023/07/07 14:15:14;;;;;;;;;;;29.20;58.30;;;;;;5078060;28;19923;-74
2023/07/07 14:17:41;;;;;;;;;;;29.20;52.50;;;;;;5076850;28;19924;-72
2023/07/07 14:20:26;;;;;;;;;;;29.20;54.20;;;;;;5078330;28;19921;-73
2023/07/07 14:22:52;;;;;;;;;;;29.30;53.60;;;;;;5086288;28;19959;-73
2023/07/07 14:25:19;;;;;;;;;;;29.20;53.80;;;;;;5077197;28;20035;-73